sim
Sign-in with your pilot id or email,
or register
Callsign
Passwort

Schedule Details

Flight Number: DLH2301
Departure: Amsterdam Schiphol Airport (EHAM) at 07:55
Arrival: Munich Airport (EDDM) at 09:15
Route: Lufthansa Passenger Schedule. Enter filed route here before submitting Pirep.

Weather Information
Getting current METAR information for EHAM 231155Z 19019KT 9999 -SHRA SCT030TCU 20/14 Q1002 TEMPO 7000
Getting current METAR information for EDDM 231150Z 24006KT 220V320 9999 FEW010 BKN030 18/16 Q1010 TEMPO SHRA BKN020CB

Schedule Frequency

Route Map